Time;durP1;ratioP1;P1;durP2;ratioP2;P2;SDS_P1;SDS_P2;PMS_P1;PMS_P2;Temp;Humidity;BMP_temperature;BMP_pressure;BME280_temperature;BME280_humidity;BME280_pressure;Samples;Min_cycle;Max_cycle;Signal;HPM_P1;HPM_P2
2021/09/26 00:01:43;;;;;;;29.30;20.00;;;14.60;92.40;;;;;;5054734;28;20048;-49
2021/09/26 00:04:09;;;;;;;31.23;20.27;;;14.50;92.50;;;;;;5054823;28;20071;-48
2021/09/26 00:06:35;;;;;;;33.15;20.00;;;14.50;92.70;;;;;;5054804;28;20029;-48
2021/09/26 00:09:01;;;;;;;35.42;21.00;;;14.40;92.80;;;;;;5054879;28;20029;-48
2021/09/26 00:11:27;;;;;;;28.98;19.60;;;14.50;93.00;;;;;;5054970;28;20092;-49
2021/09/26 00:13:53;;;;;;;34.85;20.55;;;14.60;92.80;;;;;;5055169;28;20059;-51
2021/09/26 00:16:19;;;;;;;36.42;20.50;;;14.60;92.40;;;;;;5054491;28;20082;-51
2021/09/26 00:18:44;;;;;;;33.50;21.75;;;14.70;92.40;;;;;;5054304;28;20049;-49
2021/09/26 00:21:10;;;;;;;31.15;17.90;;;14.60;92.30;;;;;;5055085;28;20130;-50
2021/09/26 00:23:36;;;;;;;29.88;19.27;;;14.70;92.30;;;;;;5054442;28;20308;-49
2021/09/26 00:26:03;;;;;;;31.00;18.15;;;14.60;92.30;;;;;;5054423;28;20028;-49
2021/09/26 00:28:30;;;;;;;28.42;17.92;;;14.60;92.50;;;;;;5054454;28;20354;-50
2021/09/26 00:30:57;;;;;;;28.45;17.88;;;14.80;91.90;;;;;;5054672;28;20460;-52
2021/09/26 00:33:23;;;;;;;31.20;17.40;;;14.60;91.90;;;;;;5054566;28;20469;-48
2021/09/26 00:35:49;;;;;;;28.90;17.58;;;14.80;92.10;;;;;;5054594;28;20059;-48
2021/09/26 00:38:18;;;;;;;27.67;17.50;;;14.70;91.90;;;;;;5054216;28;20037;-49
2021/09/26 00:40:45;;;;;;;29.20;18.08;;;14.80;91.90;;;;;;5054081;28;20083;-46
2021/09/26 00:43:11;;;;;;;26.25;17.38;;;14.80;92.10;;;;;;5052700;28;20086;-50
2021/09/26 00:45:37;;;;;;;30.08;17.67;;;14.70;91.80;;;;;;5053941;28;20028;-48
2021/09/26 00:48:03;;;;;;;26.38;17.20;;;14.80;91.90;;;;;;5053860;28;20111;-47
2021/09/26 00:50:29;;;;;;;25.77;16.83;;;14.70;91.90;;;;;;5036101;28;20114;-49
2021/09/26 00:52:54;;;;;;;27.25;15.95;;;14.70;91.90;;;;;;5054115;28;20021;-49
2021/09/26 00:55:20;;;;;;;26.75;17.67;;;14.70;92.20;;;;;;5053792;28;20465;-48
2021/09/26 00:57:46;;;;;;;32.78;18.63;;;14.80;91.90;;;;;;5054059;28;20040;-48
2021/09/26 01:00:15;;;;;;;28.88;17.75;;;14.60;91.90;;;;;;5053642;28;20033;-48
2021/09/26 01:02:40;;;;;;;28.17;17.15;;;14.60;92.30;;;;;;5053556;28;20032;-51
2021/09/26 01:05:08;;;;;;;29.77;17.38;;;14.70;92.00;;;;;;5052803;28;20028;-48
2021/09/26 01:07:47;;;;;;;22.67;15.65;;;14.70;92.00;;;;;;5054003;28;20111;-48
2021/09/26 01:10:21;;;;;;;28.50;17.65;;;14.50;91.90;;;;;;5053863;28;20341;-50
2021/09/26 01:13:07;;;;;;;26.30;16.70;;;14.40;92.30;;;;;;5051930;28;20052;-48
2021/09/26 01:16:08;;;;;;;26.25;16.60;;;14.40;92.50;;;;;;5054036;28;20055;-48
2021/09/26 01:18:58;;;;;;;22.27;15.68;;;14.40;92.60;;;;;;5053194;28;20052;-48
2021/09/26 01:21:32;;;;;;;26.92;16.30;;;14.30;92.70;;;;;;5053427;28;20032;-47
2021/09/26 01:24:27;;;;;;;25.33;16.40;;;14.30;92.90;;;;;;5053351;28;20025;-48
2021/09/26 01:27:28;;;;;;;26.80;15.43;;;14.30;92.90;;;;;;5053060;28;20033;-49
2021/09/26 01:30:23;;;;;;;26.73;16.67;;;14.30;92.80;;;;;;5052315;28;20060;-49
2021/09/26 01:33:30;;;;;;;26.60;16.05;;;14.40;92.60;;;;;;5053169;28;20036;-53
2021/09/26 01:36:04;;;;;;;25.70;16.80;;;14.60;92.10;;;;;;5052211;28;20102;-48
2021/09/26 01:38:42;;;;;;;24.15;16.80;;;14.70;91.40;;;;;;5053145;28;20063;-50
2021/09/26 01:41:30;;;;;;;26.40;16.27;;;14.60;91.10;;;;;;5053092;28;20028;-48
2021/09/26 01:43:58;;;;;;;21.63;16.08;;;14.40;91.50;;;;;;5052253;28;20072;-49
2021/09/26 01:46:32;;;;;;;19.23;13.60;;;14.40;91.80;;;;;;5052974;28;20120;-48
2021/09/26 01:49:05;;;;;;;21.80;14.90;;;14.30;91.90;;;;;;5052946;28;20539;-49
2021/09/26 01:51:38;;;;;;;24.90;16.00;;;14.30;92.10;;;;;;5052941;28;20025;-48
2021/09/26 01:54:08;;;;;;;23.90;14.45;;;14.30;92.10;;;;;;5051687;28;20028;-49
2021/09/26 01:56:36;;;;;;;19.92;14.80;;;14.20;92.20;;;;;;5053187;28;20025;-48
2021/09/26 01:59:03;;;;;;;24.33;15.30;;;14.20;92.30;;;;;;5052917;28;20385;-50
2021/09/26 02:01:29;;;;;;;20.35;14.25;;;14.20;92.40;;;;;;5052751;28;20480;-50
2021/09/26 02:03:56;;;;;;;22.15;14.70;;;14.20;92.50;;;;;;5053049;28;20029;-49
2021/09/26 02:06:23;;;;;;;27.13;16.48;;;14.40;92.10;;;;;;5051882;28;20036;-51
2021/09/26 02:08:50;;;;;;;23.45;14.68;;;14.40;91.60;;;;;;5051271;28;20025;-52
2021/09/26 02:11:16;;;;;;;21.10;14.20;;;14.30;91.60;;;;;;5052686;28;20097;-49
2021/09/26 02:13:44;;;;;;;19.50;13.55;;;14.30;91.70;;;;;;5051277;28;20025;-48
2021/09/26 02:16:11;;;;;;;21.88;14.60;;;14.40;91.90;;;;;;5052386;28;20025;-50
2021/09/26 02:18:38;;;;;;;21.63;15.05;;;14.40;91.60;;;;;;5052443;28;20088;-49
2021/09/26 02:21:06;;;;;;;25.42;15.52;;;14.40;91.40;;;;;;5051326;28;20028;-50
2021/09/26 02:23:33;;;;;;;22.52;14.27;;;14.40;91.20;;;;;;5052505;28;20535;-48
2021/09/26 02:26:00;;;;;;;22.10;14.70;;;14.40;91.40;;;;;;5052730;28;20040;-50
2021/09/26 02:28:26;;;;;;;23.15;14.45;;;14.40;91.20;;;;;;5052391;28;20162;-47
2021/09/26 02:30:52;;;;;;;23.08;14.40;;;14.40;91.20;;;;;;5052377;28;20025;-49
2021/09/26 02:33:17;;;;;;;21.90;14.38;;;14.40;91.20;;;;;;5052669;28;20029;-49
2021/09/26 02:35:43;;;;;;;23.88;13.45;;;14.30;91.30;;;;;;5052652;28;20032;-48
2021/09/26 02:38:09;;;;;;;19.25;13.93;;;14.30;91.40;;;;;;5052449;28;20060;-49
2021/09/26 02:40:35;;;;;;;20.77;14.27;;;14.30;91.30;;;;;;5052363;28;20055;-47
2021/09/26 02:43:19;;;;;;;20.73;13.60;;;14.30;91.30;;;;;;5052356;28;20029;-51
2021/09/26 02:45:51;;;;;;;27.77;15.05;;;14.30;91.50;;;;;;5052827;28;20416;-48
2021/09/26 02:48:24;;;;;;;20.90;13.43;;;14.30;91.60;;;;;;5052321;28;20527;-48
2021/09/26 02:50:51;;;;;;;22.55;14.35;;;14.30;91.50;;;;;;5052379;28;20021;-53
2021/09/26 02:53:18;;;;;;;22.52;13.40;;;14.30;91.40;;;;;;5052605;28;20025;-52
2021/09/26 02:55:46;;;;;;;23.35;16.13;;;14.30;91.30;;;;;;5052298;28;20078;-49
2021/09/26 02:58:12;;;;;;;20.25;13.43;;;14.40;91.20;;;;;;5052499;28;20032;-52
2021/09/26 03:00:40;;;;;;;20.75;13.82;;;14.50;91.00;;;;;;5052227;28;20027;-49
2021/09/26 03:03:27;;;;;;;17.83;14.18;;;14.60;90.80;;;;;;5052139;28;20032;-47
2021/09/26 03:05:54;;;;;;;20.75;14.93;;;14.70;90.30;;;;;;5050984;28;20033;-47
2021/09/26 03:08:20;;;;;;;17.48;12.85;;;14.70;90.00;;;;;;5052441;28;20378;-48
2021/09/26 03:10:48;;;;;;;22.58;13.40;;;14.80;90.00;;;;;;5052000;28;20021;-51
2021/09/26 03:13:14;;;;;;;20.73;14.57;;;14.80;89.70;;;;;;5052019;28;20139;-50
2021/09/26 03:15:40;;;;;;;17.15;13.05;;;14.80;89.70;;;;;;5052421;28;20045;-53
2021/09/26 03:18:06;;;;;;;22.20;12.45;;;14.70;89.80;;;;;;5051917;28;20057;-49
2021/09/26 03:20:32;;;;;;;19.55;13.38;;;14.80;89.80;;;;;;5052218;28;20358;-52
2021/09/26 03:22:58;;;;;;;20.52;13.02;;;14.80;89.80;;;;;;5052325;28;20112;-49
2021/09/26 03:25:24;;;;;;;18.35;13.25;;;14.70;89.80;;;;;;5052034;28;20107;-51
2021/09/26 03:27:50;;;;;;;21.83;14.60;;;14.80;89.80;;;;;;5053061;28;20400;-48
2021/09/26 03:30:16;;;;;;;20.15;12.70;;;14.80;89.80;;;;;;5055660;28;20052;-48
2021/09/26 03:32:42;;;;;;;16.10;13.23;;;14.80;89.70;;;;;;5054221;28;20037;-49
2021/09/26 03:35:09;;;;;;;20.13;12.07;;;14.80;89.60;;;;;;5055442;28;20013;-50
2021/09/26 03:37:35;;;;;;;18.98;12.63;;;14.80;89.70;;;;;;5055429;28;20028;-49
2021/09/26 03:40:03;;;;;;;19.30;12.65;;;14.80;89.60;;;;;;5055582;28;20477;-48
2021/09/26 03:42:29;;;;;;;15.82;12.10;;;14.80;89.40;;;;;;5055172;28;20354;-48
2021/09/26 03:44:55;;;;;;;18.58;13.45;;;14.80;89.30;;;;;;5055326;28;20123;-48
2021/09/26 03:47:21;;;;;;;20.35;13.15;;;14.90;89.20;;;;;;5055417;28;20033;-48
2021/09/26 03:49:46;;;;;;;20.52;13.15;;;14.80;89.20;;;;;;5055301;28;20091;-47
2021/09/26 03:52:13;;;;;;;18.30;12.57;;;14.80;89.30;;;;;;5053720;28;20060;-51
2021/09/26 03:54:39;;;;;;;15.63;11.38;;;14.80;89.20;;;;;;5055323;28;20484;-49
2021/09/26 03:57:06;;;;;;;18.00;12.13;;;14.80;89.10;;;;;;5055281;28;20067;-48
2021/09/26 03:59:31;;;;;;;18.67;12.75;;;14.80;89.10;;;;;;5055048;28;20071;-47
2021/09/26 04:01:57;;;;;;;22.70;12.52;;;14.80;89.20;;;;;;5055175;28;20025;-49
2021/09/26 04:04:23;;;;;;;16.27;11.95;;;14.80;89.40;;;;;;5055098;28;20056;-47
2021/09/26 04:06:49;;;;;;;15.68;11.35;;;15.00;88.60;;;;;;5055046;28;20052;-49
2021/09/26 04:09:14;;;;;;;20.67;12.70;;;15.00;88.60;;;;;;5055142;28;20021;-49
2021/09/26 04:11:40;;;;;;;16.35;12.77;;;15.00;88.70;;;;;;5054764;28;20362;-47
2021/09/26 04:14:06;;;;;;;21.90;12.90;;;15.00;88.60;;;;;;5054949;28;20025;-49
2021/09/26 04:16:32;;;;;;;14.95;11.02;;;14.90;88.90;;;;;;5054814;28;20431;-48
2021/09/26 04:18:58;;;;;;;17.80;11.90;;;14.80;89.00;;;;;;5054376;28;20044;-48
2021/09/26 04:21:25;;;;;;;17.95;11.77;;;14.90;89.10;;;;;;5055474;28;20053;-48
2021/09/26 04:23:52;;;;;;;18.33;11.10;;;14.90;89.20;;;;;;5054594;28;20102;-48
2021/09/26 04:26:18;;;;;;;17.42;12.32;;;14.90;89.10;;;;;;5054421;28;20021;-47
2021/09/26 04:28:45;;;;;;;18.80;13.60;;;15.00;89.00;;;;;;5054420;28;20446;-48
2021/09/26 04:31:11;;;;;;;17.77;11.63;;;15.00;88.80;;;;;;5054478;28;20410;-47
2021/09/26 04:33:36;;;;;;;17.00;11.43;;;15.00;88.90;;;;;;5054414;28;20075;-49
2021/09/26 04:36:02;;;;;;;18.92;12.25;;;15.00;88.90;;;;;;5054279;28;20029;-49
2021/09/26 04:38:29;;;;;;;19.23;11.38;;;15.00;89.00;;;;;;5054227;28;20029;-47
2021/09/26 04:40:54;;;;;;;19.45;11.88;;;15.00;88.90;;;;;;5054494;28;20067;-48
2021/09/26 04:43:20;;;;;;;16.95;12.30;;;15.00;88.90;;;;;;5054418;28;20481;-48
2021/09/26 04:45:46;;;;;;;14.73;11.68;;;15.00;88.70;;;;;;5054240;28;20028;-47
2021/09/26 04:48:11;;;;;;;14.65;10.85;;;15.00;88.80;;;;;;5054131;28;20041;-51
2021/09/26 04:50:37;;;;;;;17.13;12.50;;;15.10;88.80;;;;;;5054024;28;20025;-49
2021/09/26 04:53:03;;;;;;;17.13;11.98;;;15.00;88.80;;;;;;5054440;28;20469;-52
2021/09/26 04:55:29;;;;;;;17.45;11.85;;;15.10;88.90;;;;;;5054758;28;20461;-50
2021/09/26 04:57:56;;;;;;;15.82;11.40;;;15.10;88.90;;;;;;5052929;28;20028;-50
2021/09/26 05:00:23;;;;;;;16.98;11.90;;;15.00;88.80;;;;;;5053752;28;20021;-50
2021/09/26 05:02:48;;;;;;;17.92;11.80;;;15.10;88.90;;;;;;5053864;28;20508;-50
2021/09/26 05:05:14;;;;;;;17.35;11.35;;;15.10;88.80;;;;;;5054439;28;20056;-49
2021/09/26 05:07:40;;;;;;;16.63;12.02;;;15.10;88.70;;;;;;5053647;28;20376;-47
2021/09/26 05:10:06;;;;;;;14.60;10.80;;;15.10;88.70;;;;;;5053919;28;20021;-50
2021/09/26 05:12:32;;;;;;;20.10;11.45;;;15.10;88.50;;;;;;5053688;28;20021;-50
2021/09/26 05:15:02;;;;;;;15.57;10.88;;;15.20;88.50;;;;;;5053828;28;20408;-48
2021/09/26 05:17:28;;;;;;;15.10;10.57;;;15.20;88.50;;;;;;5053658;28;20025;-48
2021/09/26 05:19:54;;;;;;;16.98;11.48;;;15.10;88.50;;;;;;5053625;28;20275;-50
2021/09/26 05:22:20;;;;;;;17.58;11.70;;;15.20;88.50;;;;;;5053804;28;20100;-50
2021/09/26 05:24:46;;;;;;;14.70;10.88;;;15.20;88.50;;;;;;5053680;28;20052;-51
2021/09/26 05:27:12;;;;;;;16.02;11.02;;;15.20;88.50;;;;;;5053689;28;20477;-53
2021/09/26 05:29:40;;;;;;;15.38;10.68;;;15.20;88.30;;;;;;5053640;28;20418;-49
2021/09/26 05:32:07;;;;;;;21.20;12.55;;;15.30;88.50;;;;;;5053843;28;20029;-48
2021/09/26 05:34:33;;;;;;;14.38;11.27;;;15.20;88.60;;;;;;5053539;28;20025;-48
2021/09/26 05:36:59;;;;;;;13.50;10.55;;;15.20;88.60;;;;;;5053614;28;20031;-51
2021/09/26 05:39:25;;;;;;;19.88;11.57;;;15.20;88.70;;;;;;5053530;28;20079;-48
2021/09/26 05:41:52;;;;;;;14.27;11.55;;;15.30;88.60;;;;;;5053585;28;20033;-49
2021/09/26 05:44:18;;;;;;;15.77;10.80;;;15.30;88.50;;;;;;5053305;28;20029;-49
2021/09/26 05:46:44;;;;;;;15.57;11.02;;;15.30;88.50;;;;;;5053313;28;20369;-48
2021/09/26 05:49:09;;;;;;;12.95;10.57;;;15.30;88.60;;;;;;5053170;28;20032;-49
2021/09/26 05:51:35;;;;;;;19.38;12.40;;;15.30;88.50;;;;;;5053150;28;20414;-48
2021/09/26 05:54:01;;;;;;;19.30;10.13;;;15.30;88.50;;;;;;5053258;28;20025;-47
2021/09/26 05:56:27;;;;;;;15.98;11.93;;;15.30;88.40;;;;;;5053120;28;20017;-47
2021/09/26 05:58:53;;;;;;;16.65;12.60;;;15.30;88.20;;;;;;5052731;28;20159;-49
2021/09/26 06:01:18;;;;;;;15.20;9.93;;;15.40;88.20;;;;;;5051608;28;20044;-47
2021/09/26 06:03:44;;;;;;;15.80;10.30;;;15.50;88.00;;;;;;5052765;28;20025;-49
2021/09/26 06:06:10;;;;;;;20.98;12.38;;;15.50;87.70;;;;;;5052833;28;20029;-49
2021/09/26 06:08:36;;;;;;;14.23;10.75;;;15.60;87.60;;;;;;5052698;28;20105;-49
2021/09/26 06:11:02;;;;;;;17.33;10.45;;;15.60;87.50;;;;;;5053285;28;20353;-47
2021/09/26 06:13:27;;;;;;;16.80;10.50;;;15.70;87.40;;;;;;5052898;28;20060;-51
2021/09/26 06:15:53;;;;;;;21.90;10.98;;;15.70;87.30;;;;;;5052804;28;20376;-48
2021/09/26 06:18:19;;;;;;;18.50;10.48;;;15.80;87.10;;;;;;5052444;28;20053;-48
2021/09/26 06:20:46;;;;;;;16.02;9.50;;;15.80;86.90;;;;;;5052764;28;20041;-48
2021/09/26 06:23:12;;;;;;;16.65;10.90;;;15.80;86.90;;;;;;5052658;28;20075;-48
2021/09/26 06:25:37;;;;;;;16.63;10.82;;;15.90;86.30;;;;;;5052693;28;20025;-48
2021/09/26 06:28:03;;;;;;;13.18;10.02;;;16.00;86.50;;;;;;5052539;28;20087;-48
2021/09/26 06:30:29;;;;;;;15.75;10.35;;;16.00;86.20;;;;;;5053019;28;20370;-48
2021/09/26 06:32:55;;;;;;;22.40;11.68;;;16.00;86.30;;;;;;5053076;28;20068;-48
2021/09/26 06:35:21;;;;;;;15.02;11.40;;;16.00;86.40;;;;;;5052589;28;20372;-52
2021/09/26 06:37:47;;;;;;;17.27;11.35;;;16.10;86.20;;;;;;5052340;28;20025;-51
2021/09/26 06:40:13;;;;;;;13.38;10.27;;;16.20;85.90;;;;;;5052572;28;20516;-51
2021/09/26 06:42:38;;;;;;;12.88;9.60;;;16.20;85.50;;;;;;5052541;28;20041;-49
2021/09/26 06:45:06;;;;;;;13.40;10.63;;;16.30;85.20;;;;;;5052796;28;20420;-50
2021/09/26 06:47:32;;;;;;;13.70;10.20;;;16.30;85.10;;;;;;5052526;28;20040;-50
2021/09/26 06:49:58;;;;;;;16.65;10.50;;;16.40;84.90;;;;;;5052815;28;20021;-51
2021/09/26 06:52:23;;;;;;;13.50;9.20;;;16.40;85.20;;;;;;5052914;28;20017;-48
2021/09/26 06:54:49;;;;;;;12.60;9.55;;;16.60;85.00;;;;;;5051263;28;20196;-48
2021/09/26 06:57:15;;;;;;;13.65;9.95;;;16.70;84.80;;;;;;5053021;28;20025;-48
2021/09/26 06:59:41;;;;;;;12.77;9.65;;;16.70;84.70;;;;;;5052453;28;20029;-48
2021/09/26 07:02:07;;;;;;;14.73;9.95;;;16.80;84.80;;;;;;5052438;28;20025;-48
2021/09/26 07:04:33;;;;;;;14.00;9.80;;;16.90;84.10;;;;;;5056172;28;20432;-50
2021/09/26 07:06:59;;;;;;;12.82;10.43;;;17.00;84.00;;;;;;5057412;28;20032;-51
2021/09/26 07:09:24;;;;;;;15.40;10.05;;;17.20;83.50;;;;;;5056153;28;20100;-52
2021/09/26 07:11:53;;;;;;;16.85;10.98;;;17.40;83.00;;;;;;5057528;28;20440;-50
2021/09/26 07:14:19;;;;;;;12.57;9.43;;;17.40;82.70;;;;;;5057462;28;20450;-50
2021/09/26 07:16:45;;;;;;;10.27;8.50;;;17.60;82.40;;;;;;5057779;28;20044;-49
2021/09/26 07:19:12;;;;;;;14.27;8.70;;;17.70;82.10;;;;;;5055047;28;20164;-51
2021/09/26 07:21:38;;;;;;;10.35;6.75;;;18.20;81.40;;;;;;5056210;28;20465;-50
2021/09/26 07:24:04;;;;;;;13.45;7.25;;;18.10;81.70;;;;;;5056500;28;20029;-49
2021/09/26 07:26:31;;;;;;;13.90;7.25;;;18.50;80.60;;;;;;5056190;28;20033;-50
2021/09/26 07:28:56;;;;;;;9.98;7.18;;;18.80;80.10;;;;;;5056033;28;20035;-52
2021/09/26 07:31:22;;;;;;;10.30;7.32;;;18.80;79.80;;;;;;5056072;28;20380;-52
2021/09/26 07:33:50;;;;;;;8.18;6.35;;;18.80;80.20;;;;;;5055828;28;20417;-52
2021/09/26 07:36:16;;;;;;;8.65;7.35;;;18.50;81.60;;;;;;5055787;28;20020;-50
2021/09/26 07:38:42;;;;;;;10.68;7.22;;;18.50;82.00;;;;;;5055669;28;20466;-48
2021/09/26 07:41:07;;;;;;;9.40;6.82;;;18.70;81.90;;;;;;5055583;28;20036;-49
2021/09/26 07:43:33;;;;;;;11.68;7.15;;;19.00;80.50;;;;;;5037895;28;20029;-52
2021/09/26 07:45:59;;;;;;;13.43;7.25;;;19.10;80.10;;;;;;5055974;28;20055;-49
2021/09/26 07:48:24;;;;;;;11.35;8.57;;;18.90;81.00;;;;;;5055238;28;20032;-50
2021/09/26 07:50:51;;;;;;;11.52;6.55;;;19.00;80.60;;;;;;5055048;28;20033;-51
2021/09/26 07:53:17;;;;;;;8.77;7.35;;;18.90;81.10;;;;;;5055773;28;20374;-50
2021/09/26 07:55:43;;;;;;;12.57;8.05;;;18.80;81.90;;;;;;5055252;28;20108;-49
2021/09/26 07:58:09;;;;;;;11.45;6.78;;;19.10;81.20;;;;;;5055468;28;20036;-49
2021/09/26 08:00:35;;;;;;;9.85;8.38;;;19.50;79.90;;;;;;5054650;28;20473;-53
2021/09/26 08:03:02;;;;;;;13.80;7.55;;;19.60;79.50;;;;;;5054640;28;20040;-50
2021/09/26 08:05:28;;;;;;;8.05;7.13;;;19.70;79.10;;;;;;5056393;28;20021;-53
2021/09/26 08:07:53;;;;;;;11.13;7.35;;;19.80;78.90;;;;;;5055803;28;20029;-49
2021/09/26 08:10:20;;;;;;;10.18;6.60;;;19.70;79.90;;;;;;5056088;28;20021;-51
2021/09/26 08:12:47;;;;;;;7.57;6.43;;;20.20;78.30;;;;;;5054258;28;20534;-48
2021/09/26 08:15:12;;;;;;;7.93;6.15;;;20.60;76.70;;;;;;5053979;28;20093;-56
2021/09/26 08:17:38;;;;;;;14.15;7.90;;;21.10;75.50;;;;;;5055342;28;20040;-50
2021/09/26 08:20:08;;;;;;;9.02;6.32;;;21.30;74.80;;;;;;5055702;28;20029;-52
2021/09/26 08:22:34;;;;;;;11.20;6.65;;;21.70;73.60;;;;;;5054198;28;20029;-49
2021/09/26 08:25:00;;;;;;;7.22;5.68;;;21.40;73.70;;;;;;5055304;28;20024;-51
2021/09/26 08:27:28;;;;;;;11.98;5.70;;;21.40;73.90;;;;;;5055215;28;20020;-52
2021/09/26 08:29:54;;;;;;;10.32;6.07;;;22.10;72.10;;;;;;5054206;28;20025;-52
2021/09/26 08:32:20;;;;;;;12.20;6.25;;;22.80;69.30;;;;;;5053418;28;20021;-49
2021/09/26 08:34:46;;;;;;;9.82;6.68;;;21.80;72.40;;;;;;5054820;28;20033;-52
2021/09/26 08:37:12;;;;;;;9.18;5.85;;;22.50;71.10;;;;;;5055030;28;20070;-48
2021/09/26 08:39:37;;;;;;;10.30;6.32;;;21.90;71.90;;;;;;5054877;28;20032;-51
2021/09/26 08:42:03;;;;;;;8.57;5.97;;;21.30;74.10;;;;;;5054757;28;20021;-49
2021/09/26 08:44:30;;;;;;;7.18;5.70;;;21.50;74.20;;;;;;5054471;28;20029;-50
2021/09/26 08:46:56;;;;;;;7.82;6.47;;;21.00;75.80;;;;;;5054806;28;20033;-54
2021/09/26 08:49:23;;;;;;;11.18;6.88;;;21.50;74.40;;;;;;5054515;28;20028;-52
2021/09/26 08:51:51;;;;;;;8.32;6.20;;;22.50;71.60;;;;;;5054760;28;20492;-50
2021/09/26 08:54:17;;;;;;;9.52;5.78;;;22.90;69.00;;;;;;5054392;28;20091;-54
2021/09/26 08:56:44;;;;;;;8.40;5.47;;;22.70;69.50;;;;;;5053131;28;20075;-49
2021/09/26 08:59:11;;;;;;;10.45;6.45;;;22.40;70.90;;;;;;5054716;28;20029;-52
2021/09/26 09:01:37;;;;;;;6.65;5.35;;;22.80;69.50;;;;;;5054517;28;20492;-48
2021/09/26 09:04:04;;;;;;;7.28;5.65;;;23.50;67.10;;;;;;5036499;28;20029;-49
2021/09/26 09:06:47;;;;;;;7.40;6.43;;;23.60;66.40;;;;;;5053044;28;20033;-49
2021/09/26 09:09:16;;;;;;;8.32;6.18;;;23.30;68.00;;;;;;5054219;28;20025;-51
2021/09/26 09:11:44;;;;;;;6.63;5.22;;;23.40;67.00;;;;;;5054249;28;20017;-51
2021/09/26 09:14:11;;;;;;;8.65;5.95;;;;;;;;;;5054090;28;20032;-48
2021/09/26 09:16:36;;;;;;;8.40;5.80;;;23.70;65.60;;;;;;5054311;28;20101;-49
2021/09/26 09:19:02;;;;;;;7.75;5.50;;;23.80;65.60;;;;;;5053930;28;20052;-49
2021/09/26 09:21:33;;;;;;;6.10;5.32;;;23.80;65.90;;;;;;5054208;28;20036;-52
2021/09/26 09:24:25;;;;;;;6.22;5.40;;;24.10;64.30;;;;;;5055134;28;20142;-50
2021/09/26 09:26:52;;;;;;;6.63;5.50;;;24.20;64.40;;;;;;5053879;28;20377;-49
2021/09/26 09:29:22;;;;;;;8.25;5.68;;;24.30;64.10;;;;;;5053893;28;20024;-54
2021/09/26 09:31:56;;;;;;;7.43;5.50;;;24.40;63.70;;;;;;5054282;28;20477;-49
2021/09/26 09:34:40;;;;;;;7.82;5.82;;;24.50;62.60;;;;;;5052610;28;20365;-49
2021/09/26 09:37:12;;;;;;;6.28;4.75;;;25.20;60.70;;;;;;5053967;28;20104;-50
2021/09/26 09:39:39;;;;;;;13.20;7.00;;;24.90;61.40;;;;;;5053967;28;20512;-50
2021/09/26 09:42:19;;;;;;;7.75;6.40;;;24.50;62.60;;;;;;5052049;28;20489;-50
2021/09/26 09:44:46;;;;;;;8.52;5.80;;;23.80;64.80;;;;;;5052383;28;20029;-53
2021/09/26 09:47:12;;;;;;;9.25;6.35;;;24.80;62.10;;;;;;5054009;28;20049;-49
2021/09/26 09:49:51;;;;;;;7.97;5.40;;;;;;;;;;5052576;28;20021;-52
2021/09/26 09:52:17;;;;;;;11.27;5.83;;;25.90;57.70;;;;;;5054061;28;20025;-50
2021/09/26 09:56:19;;;;;;;8.88;5.57;;;24.20;62.90;;;;;;5071570;28;20421;-49
2021/09/26 09:58:54;;;;;;;11.52;5.40;;;24.10;63.70;;;;;;5070874;28;20059;-49
2021/09/26 10:01:28;;;;;;;9.32;5.88;;;24.80;61.00;;;;;;5069378;28;20036;-53
2021/09/26 10:03:57;;;;;;;7.78;5.85;;;24.10;63.70;;;;;;5070990;28;20027;-52
2021/09/26 10:06:43;;;;;;;6.90;6.05;;;24.80;61.60;;;;;;5070746;28;20477;-50
2021/09/26 10:09:19;;;;;;;6.47;5.38;;;24.00;63.70;;;;;;5072784;28;20199;-49
2021/09/26 10:11:58;;;;;;;12.13;6.65;;;24.50;62.20;;;;;;5071740;28;20473;-54
2021/09/26 10:14:27;;;;;;;8.77;5.35;;;23.80;64.90;;;;;;5070201;28;20542;-53
2021/09/26 10:16:54;;;;;;;7.50;5.55;;;24.30;63.50;;;;;;5054265;28;20021;-53
2021/09/26 10:19:22;;;;;;;7.05;5.80;;;22.90;67.50;;;;;;5071953;28;20473;-52
2021/09/26 10:21:50;;;;;;;11.00;6.32;;;22.70;68.20;;;;;;5071225;28;20032;-49
2021/09/26 10:24:20;;;;;;;6.10;5.50;;;22.70;68.10;;;;;;5070664;28;20090;-52
2021/09/26 10:26:46;;;;;;;9.85;5.47;;;23.00;67.70;;;;;;5070690;28;20029;-49
2021/09/26 10:29:13;;;;;;;7.38;5.18;;;23.70;65.10;;;;;;5074177;28;20025;-50
2021/09/26 10:31:40;;;;;;;7.75;6.53;;;24.90;61.70;;;;;;5071363;28;20104;-49
2021/09/26 10:34:07;;;;;;;6.32;4.80;;;25.80;58.70;;;;;;5070623;28;20036;-50
2021/09/26 10:36:35;;;;;;;7.50;5.70;;;25.70;58.50;;;;;;5069987;28;20032;-51
2021/09/26 10:39:05;;;;;;;7.93;6.03;;;24.80;61.10;;;;;;5068484;28;20070;-52
2021/09/26 10:41:30;;;;;;;7.45;5.00;;;24.00;64.10;;;;;;5069774;28;20035;-49
2021/09/26 10:43:57;;;;;;;10.30;5.47;;;24.40;63.30;;;;;;5069589;28;20025;-50
2021/09/26 10:46:27;;;;;;;9.13;5.20;;;25.90;58.80;;;;;;5068940;28;20074;-47
2021/09/26 10:48:55;;;;;;;6.38;4.97;;;26.80;56.20;;;;;;5069579;28;20506;-48
2021/09/26 10:51:52;;;;;;;9.40;5.43;;;26.50;56.70;;;;;;5069630;28;20053;-49
2021/09/26 10:54:28;;;;;;;9.02;4.50;;;26.10;57.40;;;;;;5069291;28;20052;-49
2021/09/26 10:57:14;;;;;;;7.47;5.55;;;25.80;58.50;;;;;;5069464;28;20107;-48
2021/09/26 10:59:41;;;;;;;7.10;5.07;;;25.40;58.90;;;;;;5068999;28;20476;-50
2021/09/26 11:02:33;;;;;;;6.13;5.40;;;25.10;59.80;;;;;;5069547;28;20023;-49
2021/09/26 11:05:04;;;;;;;11.63;6.18;;;25.00;60.50;;;;;;5069128;28;20465;-49
2021/09/26 11:07:43;;;;;;;9.10;5.28;;;25.10;59.60;;;;;;5056769;28;20512;-47
2021/09/26 11:10:09;;;;;;;5.25;4.40;;;24.70;60.80;;;;;;5056034;28;20074;-48
2021/09/26 11:12:41;;;;;;;11.63;5.20;;;25.60;58.60;;;;;;5056251;28;20021;-51
2021/09/26 11:15:14;;;;;;;6.47;4.32;;;26.50;55.50;;;;;;5055624;28;20029;-51
2021/09/26 11:17:53;;;;;;;11.85;5.43;;;26.10;56.80;;;;;;5055805;28;20067;-47
2021/09/26 11:20:25;;;;;;;8.75;4.20;;;26.80;55.40;;;;;;5055117;28;20106;-48
2021/09/26 11:23:06;;;;;;;9.75;4.82;;;26.30;56.10;;;;;;5055381;28;20028;-51
2021/09/26 11:25:56;;;;;;;7.90;4.88;;;26.10;56.70;;;;;;5055574;28;20029;-52
2021/09/26 11:28:36;;;;;;;6.25;4.90;;;24.60;60.20;;;;;;5055894;28;20484;-53
2021/09/26 11:31:05;;;;;;;5.43;4.50;;;24.10;62.20;;;;;;5055908;28;20056;-49
2021/09/26 11:33:56;;;;;;;12.68;4.90;;;25.10;60.10;;;;;;5055088;28;20024;-51
2021/09/26 11:36:26;;;;;;;7.80;4.45;;;24.40;61.90;;;;;;5053999;28;20029;-50
2021/09/26 11:38:52;;;;;;;9.68;4.15;;;25.10;59.90;;;;;;5055623;28;20032;-51
2021/09/26 11:41:38;;;;;;;5.28;4.35;;;25.80;56.90;;;;;;5053518;28;20029;-48
2021/09/26 11:44:06;;;;;;;8.07;4.38;;;26.10;56.40;;;;;;5054501;28;20040;-50
2021/09/26 11:46:33;;;;;;;5.95;3.78;;;26.30;55.40;;;;;;5054893;28;20358;-48
2021/09/26 11:49:02;;;;;;;10.98;4.53;;;26.10;55.40;;;;;;5054716;28;20025;-52
2021/09/26 11:51:29;;;;;;;6.15;3.65;;;25.90;56.40;;;;;;5055455;28;20025;-52
2021/09/26 11:53:55;;;;;;;10.35;4.10;;;25.90;56.00;;;;;;5054974;28;20110;-50
2021/09/26 11:56:26;;;;;;;5.78;4.47;;;26.60;54.40;;;;;;5054456;28;20076;-49
2021/09/26 11:58:56;;;;;;;7.00;4.18;;;26.40;54.80;;;;;;5054648;28;20048;-51
2021/09/26 12:01:25;;;;;;;;;;;25.70;55.80;;;;;;5055213;28;20033;-47
2021/09/26 12:04:11;;;;;;;5.53;3.80;;;26.10;55.60;;;;;;5054977;28;20261;-48
2021/09/26 12:06:43;;;;;;;7.75;3.30;;;26.40;55.30;;;;;;5055129;28;20021;-51
2021/09/26 12:09:09;;;;;;;7.45;3.72;;;27.30;52.60;;;;;;5055611;28;20033;-51
2021/09/26 12:11:49;;;;;;;7.00;3.92;;;27.20;53.00;;;;;;5054522;28;20021;-48
2021/09/26 12:14:29;;;;;;;;;;;26.50;53.70;;;;;;5055243;28;20028;-49
2021/09/26 12:17:01;;;;;;;6.18;3.78;;;26.20;55.10;;;;;;5053205;28;19959;-48
2021/09/26 12:19:27;;;;;;;6.90;4.35;;;26.20;55.60;;;;;;5052407;28;20039;-51
2021/09/26 12:22:07;;;;;;;5.97;3.70;;;26.30;55.10;;;;;;5054522;28;20025;-47
2021/09/26 12:24:53;;;;;;;5.25;3.55;;;25.80;56.20;;;;;;5054745;28;20029;-52
2021/09/26 12:27:35;;;;;;;12.55;3.80;;;25.10;57.10;;;;;;5052946;28;20116;-48
2021/09/26 12:30:01;;;;;;;5.43;3.10;;;24.80;58.30;;;;;;5054356;28;20029;-48
2021/09/26 12:32:31;;;;;;;3.33;2.70;;;25.00;57.20;;;;;;5054240;28;20021;-49
2021/09/26 12:34:58;;;;;;;8.68;4.15;;;25.30;56.80;;;;;;5052867;28;20036;-53
2021/09/26 12:37:30;;;;;;;14.57;4.53;;;25.00;57.50;;;;;;5052933;28;20135;-49
2021/09/26 12:40:04;;;;;;;7.40;2.72;;;24.60;57.80;;;;;;5054413;28;20021;-49
2021/09/26 12:42:36;;;;;;;5.35;2.65;;;24.80;58.30;;;;;;5035950;28;20021;-49
2021/09/26 12:45:40;;;;;;;12.73;3.08;;;24.70;57.90;;;;;;5054268;28;20021;-50
2021/09/26 12:48:09;;;;;;;6.07;2.85;;;24.40;58.50;;;;;;5053014;28;20037;-51